sensor_id;sensor_type;location;lat;lon;timestamp;pressure;altitude;pressure_sealevel;temperature;humidity
18900;BME280;9582;52.018;6.306;2023-04-24T00:01:52;99930.75;;;9.29;100.00
18900;BME280;9582;52.018;6.306;2023-04-24T00:04:20;99932.28;;;9.33;100.00
18900;BME280;9582;52.018;6.306;2023-04-24T00:06:46;99934.78;;;9.35;100.00
18900;BME280;9582;52.018;6.306;2023-04-24T00:09:14;99918.31;;;9.34;100.00
18900;BME280;9582;52.018;6.306;2023-04-24T00:11:41;99926.03;;;9.36;100.00
18900;BME280;9582;52.018;6.306;2023-04-24T00:14:07;99926.03;;;9.36;100.00
18900;BME280;9582;52.018;6.306;2023-04-24T00:16:34;99925.03;;;9.38;100.00
18900;BME280;9582;52.018;6.306;2023-04-24T00:19:00;99932.97;;;9.37;100.00
18900;BME280;9582;52.018;6.306;2023-04-24T00:21:28;99931.16;;;9.37;100.00
18900;BME280;9582;52.018;6.306;2023-04-24T00:23:55;99937.22;;;9.38;100.00
18900;BME280;9582;52.018;6.306;2023-04-24T00:26:21;99939.69;;;9.41;100.00
18900;BME280;9582;52.018;6.306;2023-04-24T00:28:48;99931.94;;;9.39;100.00
18900;BME280;9582;52.018;6.306;2023-04-24T00:31:14;99939.78;;;9.39;100.00
18900;BME280;9582;52.018;6.306;2023-04-24T00:33:41;99932.88;;;9.38;100.00
18900;BME280;9582;52.018;6.306;2023-04-24T00:36:08;99942.38;;;9.39;100.00
18900;BME280;9582;52.018;6.306;2023-04-24T00:38:36;99948.50;;;9.38;100.00
18900;BME280;9582;52.018;6.306;2023-04-24T00:41:03;99950.38;;;9.36;100.00
18900;BME280;9582;52.018;6.306;2023-04-24T00:43:29;99938.19;;;9.37;100.00
18900;BME280;9582;52.018;6.306;2023-04-24T00:45:57;99938.19;;;9.37;100.00
18900;BME280;9582;52.018;6.306;2023-04-24T00:48:24;99939.84;;;9.38;100.00
18900;BME280;9582;52.018;6.306;2023-04-24T00:50:51;99943.31;;;9.38;100.00
18900;BME280;9582;52.018;6.306;2023-04-24T00:53:18;99939.84;;;9.38;100.00
18900;BME280;9582;52.018;6.306;2023-04-24T00:55:46;99939.09;;;9.36;100.00
18900;BME280;9582;52.018;6.306;2023-04-24T00:58:13;99942.63;;;9.35;100.00
18900;BME280;9582;52.018;6.306;2023-04-24T01:00:40;99942.78;;;9.32;100.00
18900;BME280;9582;52.018;6.306;2023-04-24T01:03:06;99939.34;;;9.31;100.00
18900;BME280;9582;52.018;6.306;2023-04-24T01:05:33;99943.78;;;9.29;100.00
18900;BME280;9582;52.018;6.306;2023-04-24T01:08:01;99947.34;;;9.28;100.00
18900;BME280;9582;52.018;6.306;2023-04-24T01:10:29;99934.34;;;9.26;100.00
18900;BME280;9582;52.018;6.306;2023-04-24T01:12:57;99935.91;;;9.31;100.00
18900;BME280;9582;52.018;6.306;2023-04-24T01:15:24;99938.50;;;9.31;100.00
18900;BME280;9582;52.018;6.306;2023-04-24T01:17:51;99940.16;;;9.32;100.00
18900;BME280;9582;52.018;6.306;2023-04-24T01:20:19;99931.44;;;9.33;100.00
18900;BME280;9582;52.018;6.306;2023-04-24T01:22:47;99927.91;;;9.34;100.00
18900;BME280;9582;52.018;6.306;2023-04-24T01:25:14;99930.41;;;9.35;100.00
18900;BME280;9582;52.018;6.306;2023-04-24T01:27:40;99919.13;;;9.35;100.00
18900;BME280;9582;52.018;6.306;2023-04-24T01:30:08;99923.44;;;9.36;100.00
18900;BME280;9582;52.018;6.306;2023-04-24T01:32:36;99931.25;;;9.36;100.00
18900;BME280;9582;52.018;6.306;2023-04-24T01:35:04;99933.78;;;9.37;100.00
18900;BME280;9582;52.018;6.306;2023-04-24T01:37:30;99939.09;;;9.36;100.00
18900;BME280;9582;52.018;6.306;2023-04-24T01:39:58;99933.03;;;9.35;100.00
18900;BME280;9582;52.018;6.306;2023-04-24T01:42:25;99932.19;;;9.35;100.00
18900;BME280;9582;52.018;6.306;2023-04-24T01:44:52;99935.72;;;9.34;100.00
18900;BME280;9582;52.018;6.306;2023-04-24T01:47:19;99924.50;;;9.32;100.00
18900;BME280;9582;52.018;6.306;2023-04-24T01:49:47;99929.72;;;9.32;100.00
18900;BME280;9582;52.018;6.306;2023-04-24T01:52:14;99928.06;;;9.31;100.00
18900;BME280;9582;52.018;6.306;2023-04-24T01:54:41;99923.69;;;9.31;100.00
18900;BME280;9582;52.018;6.306;2023-04-24T01:57:09;99928.06;;;9.31;100.00
18900;BME280;9582;52.018;6.306;2023-04-24T01:59:36;99933.28;;;9.31;100.00
18900;BME280;9582;52.018;6.306;2023-04-24T02:02:02;99925.47;;;9.31;100.00
18900;BME280;9582;52.018;6.306;2023-04-24T02:04:29;99931.44;;;9.33;100.00
18900;BME280;9582;52.018;6.306;2023-04-24T02:06:56;99934.13;;;9.31;100.00
18900;BME280;9582;52.018;6.306;2023-04-24T02:09:23;99928.06;;;9.31;100.00
18900;BME280;9582;52.018;6.306;2023-04-24T02:11:50;99929.72;;;9.32;100.00
18900;BME280;9582;52.018;6.306;2023-04-24T02:14:18;99931.53;;;9.31;100.00
18900;BME280;9582;52.018;6.306;2023-04-24T02:16:45;99938.50;;;9.31;100.00
18900;BME280;9582;52.018;6.306;2023-04-24T02:19:11;99937.72;;;9.28;100.00
18900;BME280;9582;52.018;6.306;2023-04-24T02:21:38;99936.13;;;9.26;100.00
18900;BME280;9582;52.018;6.306;2023-04-24T02:24:04;99932.75;;;9.24;100.00
18900;BME280;9582;52.018;6.306;2023-04-24T02:26:31;99936.28;;;9.23;100.00
18900;BME280;9582;52.018;6.306;2023-04-24T02:28:57;99939.91;;;9.20;100.00
18900;BME280;9582;52.018;6.306;2023-04-24T02:31:25;99941.69;;;9.20;100.00
18900;BME280;9582;52.018;6.306;2023-04-24T02:33:51;99937.28;;;9.20;100.00
18900;BME280;9582;52.018;6.306;2023-04-24T02:36:18;99935.63;;;9.19;100.00
18900;BME280;9582;52.018;6.306;2023-04-24T02:38:44;99940.91;;;9.18;100.00
18900;BME280;9582;52.018;6.306;2023-04-24T02:41:12;99940.06;;;9.17;100.00
18900;BME280;9582;52.018;6.306;2023-04-24T02:43:38;99928.88;;;9.15;100.00
18900;BME280;9582;52.018;6.306;2023-04-24T02:46:05;99935.00;;;9.14;100.00
18900;BME280;9582;52.018;6.306;2023-04-24T02:48:33;99932.59;;;9.11;100.00
18900;BME280;9582;52.018;6.306;2023-04-24T02:50:59;99940.47;;;9.10;100.00
18900;BME280;9582;52.018;6.306;2023-04-24T02:53:26;99931.03;;;9.07;100.00
18900;BME280;9582;52.018;6.306;2023-04-24T02:55:52;99931.97;;;9.06;100.00
18900;BME280;9582;52.018;6.306;2023-04-24T02:58:19;99935.50;;;9.05;100.00
18900;BME280;9582;52.018;6.306;2023-04-24T03:00:46;99935.66;;;9.02;100.00
18900;BME280;9582;52.018;6.306;2023-04-24T03:03:13;99929.59;;;9.02;100.00
18900;BME280;9582;52.018;6.306;2023-04-24T03:05:41;99930.50;;;9.01;100.00
18900;BME280;9582;52.018;6.306;2023-04-24T03:08:08;99928.00;;;8.99;100.00
18900;BME280;9582;52.018;6.306;2023-04-24T03:10:35;99933.22;;;8.99;100.00
18900;BME280;9582;52.018;6.306;2023-04-24T03:13:02;99940.13;;;9.00;100.00
18900;BME280;9582;52.018;6.306;2023-04-24T03:15:28;99935.81;;;8.99;100.00
18900;BME280;9582;52.018;6.306;2023-04-24T03:17:55;99938.44;;;8.99;100.00
18900;BME280;9582;52.018;6.306;2023-04-24T03:20:21;99934.91;;;9.00;100.00
18900;BME280;9582;52.018;6.306;2023-04-24T03:22:49;99935.81;;;8.99;100.00
18900;BME280;9582;52.018;6.306;2023-04-24T03:25:16;99946.25;;;8.99;100.00
18900;BME280;9582;52.018;6.306;2023-04-24T03:27:42;99950.72;;;8.97;100.00
18900;BME280;9582;52.018;6.306;2023-04-24T03:30:24;99951.53;;;8.98;100.00
18900;BME280;9582;52.018;6.306;2023-04-24T03:32:55;99946.41;;;8.96;100.00
18900;BME280;9582;52.018;6.306;2023-04-24T03:35:26;99958.59;;;8.96;100.00
18900;BME280;9582;52.018;6.306;2023-04-24T03:37:54;99956.91;;;8.95;100.00
18900;BME280;9582;52.018;6.306;2023-04-24T03:40:39;99963.06;;;8.94;100.00
18900;BME280;9582;52.018;6.306;2023-04-24T03:43:17;99951.94;;;8.90;100.00
18900;BME280;9582;52.018;6.306;2023-04-24T03:45:44;99958.91;;;8.90;100.00
18900;BME280;9582;52.018;6.306;2023-04-24T03:48:11;99954.63;;;8.89;100.00
18900;BME280;9582;52.018;6.306;2023-04-24T03:50:39;99962.53;;;8.87;100.00
18900;BME280;9582;52.018;6.306;2023-04-24T03:53:10;99960.91;;;8.85;100.00
18900;BME280;9582;52.018;6.306;2023-04-24T03:55:39;99962.75;;;8.83;100.00
18900;BME280;9582;52.018;6.306;2023-04-24T03:58:06;99970.66;;;8.81;100.00
18900;BME280;9582;52.018;6.306;2023-04-24T04:00:32;99956.84;;;8.79;100.00
18900;BME280;9582;52.018;6.306;2023-04-24T04:03:32;99965.59;;;8.78;100.00
18900;BME280;9582;52.018;6.306;2023-04-24T04:05:58;99959.63;;;8.76;100.00
18900;BME280;9582;52.018;6.306;2023-04-24T04:08:26;99962.22;;;8.76;100.00
18900;BME280;9582;52.018;6.306;2023-04-24T04:10:53;99973.66;;;8.74;100.00
18900;BME280;9582;52.018;6.306;2023-04-24T04:13:20;99970.13;;;8.75;100.00
18900;BME280;9582;52.018;6.306;2023-04-24T04:15:46;99967.59;;;8.73;100.00
18900;BME280;9582;52.018;6.306;2023-04-24T04:18:13;99983.22;;;8.73;100.00
18900;BME280;9582;52.018;6.306;2023-04-24T04:20:39;99985.94;;;8.72;100.00
18900;BME280;9582;52.018;6.306;2023-04-24T04:23:05;99985.09;;;8.71;100.00
18900;BME280;9582;52.018;6.306;2023-04-24T04:25:47;99987.75;;;8.69;100.00
18900;BME280;9582;52.018;6.306;2023-04-24T04:28:16;99982.63;;;8.68;100.00
18900;BME280;9582;52.018;6.306;2023-04-24T04:30:45;99985.22;;;8.68;100.00
18900;BME280;9582;52.018;6.306;2023-04-24T04:33:12;99988.75;;;8.67;100.00
18900;BME280;9582;52.018;6.306;2023-04-24T04:35:40;99990.59;;;8.65;99.04
18900;BME280;9582;52.018;6.306;2023-04-24T04:38:08;99994.97;;;8.64;94.23
18900;BME280;9582;52.018;6.306;2023-04-24T04:40:52;99999.41;;;8.62;90.47
18900;BME280;9582;52.018;6.306;2023-04-24T04:43:20;99986.44;;;8.61;87.33
18900;BME280;9582;52.018;6.306;2023-04-24T04:45:51;99998.66;;;8.60;84.44
18900;BME280;9582;52.018;6.306;2023-04-24T04:48:37;99999.47;;;8.61;81.23
18900;BME280;9582;52.018;6.306;2023-04-24T04:51:05;99997.81;;;8.60;79.02
18900;BME280;9582;52.018;6.306;2023-04-24T04:53:32;99995.25;;;8.58;76.48
18900;BME280;9582;52.018;6.306;2023-04-24T04:55:59;99991.00;;;8.57;74.49
18900;BME280;9582;52.018;6.306;2023-04-24T04:58:33;99996.94;;;8.59;71.42
18900;BME280;9582;52.018;6.306;2023-04-24T05:01:01;99997.03;;;8.58;70.45
18900;BME280;9582;52.018;6.306;2023-04-24T05:03:32;100003.16;;;8.57;69.45
18900;BME280;9582;52.018;6.306;2023-04-24T05:06:06;100001.47;;;8.56;68.61
18900;BME280;9582;52.018;6.306;2023-04-24T05:08:35;99993.66;;;8.56;68.10
18900;BME280;9582;52.018;6.306;2023-04-24T05:11:05;99994.59;;;8.55;67.72
18900;BME280;9582;52.018;6.306;2023-04-24T05:13:31;99998.09;;;8.54;67.15
18900;BME280;9582;52.018;6.306;2023-04-24T05:15:59;99998.09;;;8.54;66.46
18900;BME280;9582;52.018;6.306;2023-04-24T05:18:27;99999.84;;;8.53;65.98
18900;BME280;9582;52.018;6.306;2023-04-24T05:20:53;99997.94;;;8.57;65.48
18900;BME280;9582;52.018;6.306;2023-04-24T05:23:20;100001.41;;;8.57;65.08
18900;BME280;9582;52.018;6.306;2023-04-24T05:25:50;100009.13;;;8.59;64.75
18900;BME280;9582;52.018;6.306;2023-04-24T05:28:19;99993.34;;;8.62;64.39
18900;BME280;9582;52.018;6.306;2023-04-24T05:30:56;100002.06;;;8.61;64.04
18900;BME280;9582;52.018;6.306;2023-04-24T05:33:24;100007.22;;;8.62;63.78
18900;BME280;9582;52.018;6.306;2023-04-24T05:35:51;100009.06;;;8.60;63.58
18900;BME280;9582;52.018;6.306;2023-04-24T05:38:17;100010.75;;;8.61;63.37
18900;BME280;9582;52.018;6.306;2023-04-24T05:40:45;100012.59;;;8.59;63.20
18900;BME280;9582;52.018;6.306;2023-04-24T05:43:11;100007.28;;;8.61;63.03
18900;BME280;9582;52.018;6.306;2023-04-24T05:45:40;100011.59;;;8.62;62.87
18900;BME280;9582;52.018;6.306;2023-04-24T05:48:06;100006.38;;;8.62;62.71
18900;BME280;9582;52.018;6.306;2023-04-24T05:50:33;100008.06;;;8.63;62.61
18900;BME280;9582;52.018;6.306;2023-04-24T05:52:59;100008.97;;;8.62;62.52
18900;BME280;9582;52.018;6.306;2023-04-24T05:55:31;100013.28;;;8.63;62.41
18900;BME280;9582;52.018;6.306;2023-04-24T05:57:58;100008.75;;;8.66;62.25
18900;BME280;9582;52.018;6.306;2023-04-24T06:00:25;100019.25;;;8.65;62.15
18900;BME280;9582;52.018;6.306;2023-04-24T06:03:01;100013.19;;;8.64;62.04
18900;BME280;9582;52.018;6.306;2023-04-24T06:05:29;100025.38;;;8.64;61.99
18900;BME280;9582;52.018;6.306;2023-04-24T06:07:56;100029.84;;;8.62;62.02
18900;BME280;9582;52.018;6.306;2023-04-24T06:10:26;100036.66;;;8.64;62.03
18900;BME280;9582;52.018;6.306;2023-04-24T06:12:52;100035.00;;;8.63;61.97
18900;BME280;9582;52.018;6.306;2023-04-24T06:15:21;100043.75;;;8.61;61.95
18900;BME280;9582;52.018;6.306;2023-04-24T06:18:10;100047.06;;;8.64;61.83
18900;BME280;9582;52.018;6.306;2023-04-24T06:20:38;100045.22;;;8.66;61.75
18900;BME280;9582;52.018;6.306;2023-04-24T06:23:07;100050.22;;;8.71;61.67
18900;BME280;9582;52.018;6.306;2023-04-24T06:25:34;100050.16;;;8.73;61.60
18900;BME280;9582;52.018;6.306;2023-04-24T06:28:00;100051.13;;;8.70;61.73
18900;BME280;9582;52.018;6.306;2023-04-24T06:30:29;100062.34;;;8.72;61.82
18900;BME280;9582;52.018;6.306;2023-04-24T06:32:55;100069.31;;;8.72;61.89
18900;BME280;9582;52.018;6.306;2023-04-24T06:35:23;100062.34;;;8.72;61.97
18900;BME280;9582;52.018;6.306;2023-04-24T06:37:50;100073.69;;;8.71;62.03
18900;BME280;9582;52.018;6.306;2023-04-24T06:40:17;100078.91;;;8.71;62.10
18900;BME280;9582;52.018;6.306;2023-04-24T06:42:44;100070.31;;;8.69;62.21
18900;BME280;9582;52.018;6.306;2023-04-24T06:45:11;100071.22;;;8.68;62.38
18900;BME280;9582;52.018;6.306;2023-04-24T06:47:37;100072.00;;;8.70;62.41
18900;BME280;9582;52.018;6.306;2023-04-24T06:50:05;100067.63;;;8.70;62.38
18900;BME280;9582;52.018;6.306;2023-04-24T06:52:33;100077.19;;;8.70;62.51
18900;BME280;9582;52.018;6.306;2023-04-24T06:55:00;100077.19;;;8.70;62.63
18900;BME280;9582;52.018;6.306;2023-04-24T06:57:27;100080.66;;;8.70;62.85
18900;BME280;9582;52.018;6.306;2023-04-24T06:59:54;100080.28;;;8.78;62.81
18900;BME280;9582;52.018;6.306;2023-04-24T07:02:20;100075.69;;;8.83;62.63
18900;BME280;9582;52.018;6.306;2023-04-24T07:04:47;100086.88;;;8.85;62.59
18900;BME280;9582;52.018;6.306;2023-04-24T07:07:14;100091.25;;;8.85;62.62
18900;BME280;9582;52.018;6.306;2023-04-24T07:09:42;100088.78;;;8.82;62.84
18900;BME280;9582;52.018;6.306;2023-04-24T07:12:10;100099.38;;;8.79;62.99
18900;BME280;9582;52.018;6.306;2023-04-24T07:14:37;100102.13;;;8.76;63.07
18900;BME280;9582;52.018;6.306;2023-04-24T07:17:04;100105.66;;;8.75;63.00
18900;BME280;9582;52.018;6.306;2023-04-24T07:19:30;100103.06;;;8.75;62.94
18900;BME280;9582;52.018;6.306;2023-04-24T07:21:57;100110.94;;;8.73;62.90
18900;BME280;9582;52.018;6.306;2023-04-24T07:24:23;100111.94;;;8.70;62.83
18900;BME280;9582;52.018;6.306;2023-04-24T07:26:52;100118.00;;;8.71;62.73
18900;BME280;9582;52.018;6.306;2023-04-24T07:29:18;100125.81;;;8.71;62.44
18900;BME280;9582;52.018;6.306;2023-04-24T07:31:46;100116.16;;;8.73;62.19
18900;BME280;9582;52.018;6.306;2023-04-24T07:34:12;100129.94;;;8.75;62.01
18900;BME280;9582;52.018;6.306;2023-04-24T07:36:40;100135.94;;;8.77;61.79
18900;BME280;9582;52.018;6.306;2023-04-24T07:39:07;100133.25;;;8.79;61.69
18900;BME280;9582;52.018;6.306;2023-04-24T07:41:34;100139.94;;;8.84;61.56
18900;BME280;9582;52.018;6.306;2023-04-24T07:44:02;100141.47;;;8.88;61.36
18900;BME280;9582;52.018;6.306;2023-04-24T07:46:30;100151.69;;;8.93;61.31
18900;BME280;9582;52.018;6.306;2023-04-24T07:48:56;100155.91;;;8.95;61.20
18900;BME280;9582;52.018;6.306;2023-04-24T07:51:24;100150.53;;;8.98;61.21
18900;BME280;9582;52.018;6.306;2023-04-24T07:53:52;100159.06;;;9.02;61.12
18900;BME280;9582;52.018;6.306;2023-04-24T07:56:19;100155.59;;;9.01;61.12
18900;BME280;9582;52.018;6.306;2023-04-24T07:58:46;100167.03;;;8.99;61.17
18900;BME280;9582;52.018;6.306;2023-04-24T08:01:14;100164.50;;;8.97;61.25
18900;BME280;9582;52.018;6.306;2023-04-24T08:03:40;100173.25;;;8.96;61.17
18900;BME280;9582;52.018;6.306;2023-04-24T08:06:07;100170.63;;;8.96;61.04
18900;BME280;9582;52.018;6.306;2023-04-24T08:08:33;100180.31;;;8.94;60.95
18900;BME280;9582;52.018;6.306;2023-04-24T08:11:00;100188.28;;;8.91;60.91
18900;BME280;9582;52.018;6.306;2023-04-24T08:13:26;100185.72;;;8.90;60.88
18900;BME280;9582;52.018;6.306;2023-04-24T08:15:53;100198.75;;;8.90;60.80
18900;BME280;9582;52.018;6.306;2023-04-24T08:18:21;100204.09;;;8.87;60.77
18900;BME280;9582;52.018;6.306;2023-04-24T08:20:48;100210.31;;;8.84;60.76
18900;BME280;9582;52.018;6.306;2023-04-24T08:23:14;100210.31;;;8.84;60.63
18900;BME280;9582;52.018;6.306;2023-04-24T08:25:41;100221.69;;;8.83;60.56
18900;BME280;9582;52.018;6.306;2023-04-24T08:28:08;100227.72;;;8.84;60.44
18900;BME280;9582;52.018;6.306;2023-04-24T08:30:35;100236.53;;;8.81;60.40
18900;BME280;9582;52.018;6.306;2023-04-24T08:33:02;100244.44;;;8.80;60.41
18900;BME280;9582;52.018;6.306;2023-04-24T08:35:30;100236.81;;;8.75;60.45
18900;BME280;9582;52.018;6.306;2023-04-24T08:37:56;100256.13;;;8.71;60.57
18900;BME280;9582;52.018;6.306;2023-04-24T08:40:28;100263.31;;;8.66;60.62
18900;BME280;9582;52.018;6.306;2023-04-24T08:42:56;100268.66;;;8.63;60.68
18900;BME280;9582;52.018;6.306;2023-04-24T08:45:23;100280.91;;;8.61;60.68
18900;BME280;9582;52.018;6.306;2023-04-24T08:47:50;100288.03;;;8.57;60.63
18900;BME280;9582;52.018;6.306;2023-04-24T08:50:18;100287.53;;;8.49;60.86
18900;BME280;9582;52.018;6.306;2023-04-24T08:52:48;100302.38;;;8.47;61.11
18900;BME280;9582;52.018;6.306;2023-04-24T08:55:15;100307.97;;;8.38;61.41
18900;BME280;9582;52.018;6.306;2023-04-24T08:57:44;100312.41;;;8.36;61.85
18900;BME280;9582;52.018;6.306;2023-04-24T09:00:12;100314.47;;;8.30;62.29
18900;BME280;9582;52.018;6.306;2023-04-24T09:02:41;100322.38;;;8.27;62.79
18900;BME280;9582;52.018;6.306;2023-04-24T09:05:10;100333.69;;;8.26;63.23
18900;BME280;9582;52.018;6.306;2023-04-24T09:07:38;100334.59;;;8.25;63.55
18900;BME280;9582;52.018;6.306;2023-04-24T09:10:08;100344.97;;;8.26;63.75
18900;BME280;9582;52.018;6.306;2023-04-24T09:12:34;100363.16;;;8.28;63.88
18900;BME280;9582;52.018;6.306;2023-04-24T09:15:02;100351.81;;;8.29;63.93
18900;BME280;9582;52.018;6.306;2023-04-24T09:17:30;100357.03;;;8.29;64.13
18900;BME280;9582;52.018;6.306;2023-04-24T09:19:57;100371.75;;;8.30;64.32
18900;BME280;9582;52.018;6.306;2023-04-24T09:22:23;100374.28;;;8.31;64.44
18900;BME280;9582;52.018;6.306;2023-04-24T09:24:59;100386.34;;;8.34;64.58
18900;BME280;9582;52.018;6.306;2023-04-24T09:27:29;100383.72;;;8.34;64.42
18900;BME280;9582;52.018;6.306;2023-04-24T09:29:56;100397.66;;;8.33;64.54
18900;BME280;9582;52.018;6.306;2023-04-24T09:32:24;100398.50;;;8.33;64.48
18900;BME280;9582;52.018;6.306;2023-04-24T09:35:05;100405.34;;;8.36;64.12
18900;BME280;9582;52.018;6.306;2023-04-24T09:37:35;100407.03;;;8.37;64.07
18900;BME280;9582;52.018;6.306;2023-04-24T09:40:09;100415.63;;;8.39;63.97
18900;BME280;9582;52.018;6.306;2023-04-24T09:42:38;100416.47;;;8.39;64.00
18900;BME280;9582;52.018;6.306;2023-04-24T09:45:08;100429.59;;;8.38;63.97
18900;BME280;9582;52.018;6.306;2023-04-24T09:47:36;100425.41;;;8.34;64.32
18900;BME280;9582;52.018;6.306;2023-04-24T09:50:09;100433.34;;;8.31;64.67
18900;BME280;9582;52.018;6.306;2023-04-24T09:52:39;100443.28;;;8.21;65.43
18900;BME280;9582;52.018;6.306;2023-04-24T09:55:11;100445.63;;;8.05;67.06
18900;BME280;9582;52.018;6.306;2023-04-24T09:57:47;100457.34;;;7.95;68.92
18900;BME280;9582;52.018;6.306;2023-04-24T10:00:18;100463.69;;;7.88;70.72
18900;BME280;9582;52.018;6.306;2023-04-24T10:02:44;100465.50;;;7.86;73.14
18900;BME280;9582;52.018;6.306;2023-04-24T10:05:11;100471.50;;;7.88;75.38
18900;BME280;9582;52.018;6.306;2023-04-24T10:07:38;100471.44;;;7.90;79.72
18900;BME280;9582;52.018;6.306;2023-04-24T10:10:05;100474.72;;;7.95;100.00
18900;BME280;9582;52.018;6.306;2023-04-24T10:12:32;100483.25;;;7.98;100.00
18900;BME280;9582;52.018;6.306;2023-04-24T10:15:01;100488.09;;;8.07;100.00
18900;BME280;9582;52.018;6.306;2023-04-24T10:17:28;100493.91;;;8.14;100.00
18900;BME280;9582;52.018;6.306;2023-04-24T10:19:55;100496.31;;;8.19;100.00
18900;BME280;9582;52.018;6.306;2023-04-24T10:22:22;100504.81;;;8.24;100.00
18900;BME280;9582;52.018;6.306;2023-04-24T10:24:50;100508.09;;;8.29;100.00
18900;BME280;9582;52.018;6.306;2023-04-24T10:27:17;100512.16;;;8.36;100.00
18900;BME280;9582;52.018;6.306;2023-04-24T10:29:47;100506.66;;;8.43;100.00
18900;BME280;9582;52.018;6.306;2023-04-24T10:32:15;100516.38;;;8.60;100.00
18900;BME280;9582;52.018;6.306;2023-04-24T10:34:42;100518.31;;;8.75;100.00
18900;BME280;9582;52.018;6.306;2023-04-24T10:37:08;100520.41;;;8.87;100.00
18900;BME280;9582;52.018;6.306;2023-04-24T10:39:35;100533.97;;;8.95;100.00
18900;BME280;9582;52.018;6.306;2023-04-24T10:42:14;100525.88;;;9.01;100.00
18900;BME280;9582;52.018;6.306;2023-04-24T10:44:40;100534.34;;;9.06;100.00
18900;BME280;9582;52.018;6.306;2023-04-24T10:47:12;100538.59;;;9.09;100.00
18900;BME280;9582;52.018;6.306;2023-04-24T10:49:40;100548.84;;;9.13;100.00
18900;BME280;9582;52.018;6.306;2023-04-24T10:52:08;100551.31;;;9.16;100.00
18900;BME280;9582;52.018;6.306;2023-04-24T10:54:41;100550.34;;;9.19;100.00
18900;BME280;9582;52.018;6.306;2023-04-24T10:57:27;100561.06;;;9.32;100.00
18900;BME280;9582;52.018;6.306;2023-04-24T11:00:15;100562.66;;;9.36;100.00
18900;BME280;9582;52.018;6.306;2023-04-24T11:02:42;100582.19;;;9.46;100.00
18900;BME280;9582;52.018;6.306;2023-04-24T11:05:16;100585.47;;;9.51;100.00
18900;BME280;9582;52.018;6.306;2023-04-24T11:08:12;100598.41;;;9.54;100.00
18900;BME280;9582;52.018;6.306;2023-04-24T11:10:40;100602.03;;;9.50;100.00
18900;BME280;9582;52.018;6.306;2023-04-24T11:13:07;100614.19;;;9.51;100.00
18900;BME280;9582;52.018;6.306;2023-04-24T11:15:34;100614.97;;;9.53;100.00
18900;BME280;9582;52.018;6.306;2023-04-24T11:18:01;100620.31;;;9.50;100.00
18900;BME280;9582;52.018;6.306;2023-04-24T11:20:28;100644.84;;;9.46;100.00
18900;BME280;9582;52.018;6.306;2023-04-24T11:23:03;100645.88;;;9.42;100.00
18900;BME280;9582;52.018;6.306;2023-04-24T11:25:30;100649.03;;;9.50;100.00
18900;BME280;9582;52.018;6.306;2023-04-24T11:28:03;100654.84;;;9.56;100.00
18900;BME280;9582;52.018;6.306;2023-04-24T11:30:31;100659.00;;;9.60;100.00
18900;BME280;9582;52.018;6.306;2023-04-24T11:33:02;100678.13;;;9.61;100.00
18900;BME280;9582;52.018;6.306;2023-04-24T11:35:35;100683.81;;;9.70;100.00
18900;BME280;9582;52.018;6.306;2023-04-24T11:38:02;100704.69;;;9.91;100.00
18900;BME280;9582;52.018;6.306;2023-04-24T11:40:30;100707.66;;;10.02;100.00
18900;BME280;9582;52.018;6.306;2023-04-24T11:42:59;100730.19;;;10.04;100.00
18900;BME280;9582;52.018;6.306;2023-04-24T11:45:29;100731.72;;;10.08;100.00
18900;BME280;9582;52.018;6.306;2023-04-24T11:47:56;100736.25;;;10.05;100.00
18900;BME280;9582;52.018;6.306;2023-04-24T11:50:25;100743.25;;;10.04;100.00
18900;BME280;9582;52.018;6.306;2023-04-24T11:52:54;100751.66;;;10.11;100.00
18900;BME280;9582;52.018;6.306;2023-04-24T11:55:26;100765.19;;;10.20;100.00
18900;BME280;9582;52.018;6.306;2023-04-24T11:57:54;100766.50;;;10.10;100.00
18900;BME280;9582;52.018;6.306;2023-04-24T12:00:22;100786.94;;;10.01;100.00
18900;BME280;9582;52.018;6.306;2023-04-24T12:02:50;100793.59;;;9.88;100.00
18900;BME280;9582;52.018;6.306;2023-04-24T12:05:20;100811.53;;;9.75;100.00
18900;BME280;9582;52.018;6.306;2023-04-24T12:07:47;100804.03;;;9.67;100.00
18900;BME280;9582;52.018;6.306;2023-04-24T12:10:20;100812.88;;;9.63;100.00
18900;BME280;9582;52.018;6.306;2023-04-24T12:12:46;100824.53;;;9.55;100.00
18900;BME280;9582;52.018;6.306;2023-04-24T12:15:16;100825.84;;;9.45;100.00
18900;BME280;9582;52.018;6.306;2023-04-24T12:17:42;100839.16;;;9.37;100.00
18900;BME280;9582;52.018;6.306;2023-04-24T12:20:10;100852.38;;;9.34;100.00
18900;BME280;9582;52.018;6.306;2023-04-24T12:22:43;100854.53;;;9.45;100.00
18900;BME280;9582;52.018;6.306;2023-04-24T12:25:12;100855.81;;;9.56;100.00
18900;BME280;9582;52.018;6.306;2023-04-24T12:27:40;100858.13;;;9.64;100.00
18900;BME280;9582;52.018;6.306;2023-04-24T12:30:13;100860.94;;;9.59;100.00
18900;BME280;9582;52.018;6.306;2023-04-24T12:32:45;100870.94;;;9.48;100.00
18900;BME280;9582;52.018;6.306;2023-04-24T12:35:12;100871.47;;;9.35;100.00
18900;BME280;9582;52.018;6.306;2023-04-24T12:37:42;100879.88;;;9.19;100.00
18900;BME280;9582;52.018;6.306;2023-04-24T12:40:10;100874.47;;;9.02;100.00
18900;BME280;9582;52.018;6.306;2023-04-24T12:42:43;100871.31;;;8.93;100.00
18900;BME280;9582;52.018;6.306;2023-04-24T12:45:10;100854.94;;;8.89;100.00
18900;BME280;9582;52.018;6.306;2023-04-24T12:47:38;100839.69;;;9.02;100.00
18900;BME280;9582;52.018;6.306;2023-04-24T12:50:06;100832.44;;;9.32;100.00
18900;BME280;9582;52.018;6.306;2023-04-24T12:52:33;100818.06;;;9.65;100.00
18900;BME280;9582;52.018;6.306;2023-04-24T12:55:00;100821.88;;;9.98;100.00
18900;BME280;9582;52.018;6.306;2023-04-24T12:57:29;100823.41;;;10.02;100.00
18900;BME280;9582;52.018;6.306;2023-04-24T12:59:58;100824.34;;;9.81;100.00
18900;BME280;9582;52.018;6.306;2023-04-24T13:02:27;100828.19;;;9.72;100.00
18900;BME280;9582;52.018;6.306;2023-04-24T13:04:54;100838.66;;;9.71;100.00
18900;BME280;9582;52.018;6.306;2023-04-24T13:07:20;100839.22;;;9.79;100.00
18900;BME280;9582;52.018;6.306;2023-04-24T13:09:48;100843.09;;;9.91;100.00
18900;BME280;9582;52.018;6.306;2023-04-24T13:12:15;100845.38;;;9.98;100.00
18900;BME280;9582;52.018;6.306;2023-04-24T13:14:42;100843.78;;;9.94;100.00